createdAt,value
2023-01-05T00:01:39.207Z,9.70
2023-01-05T00:04:07.732Z,9.90
2023-01-05T00:06:37.252Z,10.00
2023-01-05T00:09:06.209Z,9.80
2023-01-05T00:11:51.768Z,9.90
2023-01-05T00:14:46.459Z,9.70
2023-01-05T00:17:35.691Z,9.90
2023-01-05T00:20:22.696Z,9.80
2023-01-05T00:22:52.625Z,10.10
2023-01-05T00:25:22.535Z,10.00
2023-01-05T00:27:52.009Z,9.90
2023-01-05T00:30:23.332Z,9.90
2023-01-05T00:32:51.997Z,9.80
2023-01-05T00:35:20.132Z,9.90
2023-01-05T00:37:49.318Z,9.80
2023-01-05T00:40:19.101Z,10.00
2023-01-05T00:42:48.290Z,9.80
2023-01-05T00:45:17.846Z,9.80
2023-01-05T00:47:47.356Z,9.90
2023-01-05T00:50:17.477Z,10.00
2023-01-05T00:52:46.648Z,10.00
2023-01-05T00:55:15.236Z,9.90
2023-01-05T00:57:43.858Z,10.00
2023-01-05T01:00:15.964Z,10.10
2023-01-05T01:02:44.229Z,10.00
2023-01-05T01:05:13.904Z,10.10
2023-01-05T01:07:41.978Z,10.10
2023-01-05T01:10:11.828Z,10.10
2023-01-05T01:15:09.812Z,10.00
2023-01-05T01:17:37.876Z,10.10
2023-01-05T01:20:07.602Z,10.10
2023-01-05T01:22:37.033Z,10.20
2023-01-05T01:25:06.237Z,10.10
2023-01-05T01:27:34.751Z,10.30
2023-01-05T01:30:02.840Z,10.30
2023-01-05T01:32:30.894Z,10.20
2023-01-05T01:34:58.971Z,10.20
2023-01-05T01:37:27.056Z,10.20
2023-01-05T01:39:58.597Z,10.20
2023-01-05T01:42:26.984Z,10.00
2023-01-05T01:44:58.752Z,10.10
2023-01-05T01:47:42.494Z,10.10
2023-01-05T01:50:17.244Z,10.00
2023-01-05T01:52:48.346Z,10.10
2023-01-05T01:55:19.339Z,10.10
2023-01-05T01:57:49.286Z,10.20
2023-01-05T02:00:19.725Z,10.10
2023-01-05T02:02:53.498Z,9.80
2023-01-05T02:05:28.871Z,9.90
2023-01-05T02:07:56.996Z,9.90
2023-01-05T02:10:40.291Z,9.70
2023-01-05T02:13:27.714Z,9.70
2023-01-05T02:16:07.164Z,9.90
2023-01-05T02:18:48.322Z,10.00
2023-01-05T02:21:25.366Z,10.00
2023-01-05T02:24:38.675Z,10.10
2023-01-05T02:27:26.634Z,9.80
2023-01-05T02:30:34.598Z,9.90
2023-01-05T02:33:12.314Z,10.00
2023-01-05T02:35:47.690Z,10.00
2023-01-05T02:38:24.525Z,10.20
2023-01-05T02:40:58.999Z,10.30
2023-01-05T02:43:29.651Z,10.20
2023-01-05T02:45:57.735Z,10.30
2023-01-05T02:48:28.281Z,10.30
2023-01-05T02:51:01.461Z,10.20
2023-01-05T02:53:34.912Z,10.20
2023-01-05T02:56:08.397Z,10.20
2023-01-05T02:58:43.701Z,10.20
2023-01-05T03:01:18.197Z,10.20
2023-01-05T03:03:53.923Z,10.20
2023-01-05T03:06:26.929Z,9.80
2023-01-05T03:08:59.264Z,9.50
2023-01-05T03:11:51.923Z,9.20
2023-01-05T03:14:25.822Z,9.30
2023-01-05T03:16:57.686Z,9.20
2023-01-05T03:19:39.839Z,9.60
2023-01-05T03:22:33.778Z,9.60
2023-01-05T03:25:21.654Z,9.50
2023-01-05T03:28:08.418Z,9.50
2023-01-05T03:31:01.337Z,9.50
2023-01-05T03:33:54.480Z,9.40
2023-01-05T03:36:29.428Z,9.40
2023-01-05T03:39:02.468Z,9.50
2023-01-05T03:41:34.422Z,9.50
2023-01-05T03:44:02.758Z,9.40
2023-01-05T03:46:34.579Z,9.60
2023-01-05T03:49:03.101Z,9.60
2023-01-05T03:51:37.745Z,9.60
2023-01-05T03:54:09.528Z,9.60
2023-01-05T03:56:38.315Z,9.70
2023-01-05T03:59:06.981Z,9.60
2023-01-05T04:01:37.030Z,9.60
2023-01-05T04:04:05.811Z,9.70
2023-01-05T04:06:35.311Z,9.80
2023-01-05T04:09:04.685Z,9.70
2023-01-05T04:11:34.309Z,9.70
2023-01-05T04:14:06.335Z,9.90
2023-01-05T04:16:35.962Z,9.90
2023-01-05T04:19:13.651Z,9.80
2023-01-05T04:21:43.757Z,9.90
2023-01-05T04:24:12.545Z,10.00
2023-01-05T04:26:43.770Z,10.00
2023-01-05T04:29:14.180Z,10.00
2023-01-05T04:31:45.462Z,10.00
2023-01-05T04:34:14.639Z,10.10
2023-01-05T04:36:48.015Z,10.10
2023-01-05T04:39:18.080Z,10.20
2023-01-05T04:41:46.226Z,10.10
2023-01-05T04:44:14.366Z,10.10
2023-01-05T04:46:43.740Z,10.10
2023-01-05T04:49:13.711Z,10.20
2023-01-05T04:51:42.623Z,10.20
2023-01-05T04:54:12.517Z,10.30
2023-01-05T04:56:42.760Z,10.30
2023-01-05T04:59:11.552Z,10.20
2023-01-05T05:01:40.078Z,10.40
2023-01-05T05:04:12.592Z,10.30
2023-01-05T05:06:40.904Z,10.20
2023-01-05T05:09:09.321Z,10.20
2023-01-05T05:11:40.722Z,10.20
2023-01-05T05:14:09.938Z,10.30
2023-01-05T05:16:40.077Z,10.20
2023-01-05T05:19:10.605Z,10.30
2023-01-05T05:21:38.903Z,10.30
2023-01-05T05:24:07.579Z,10.30
2023-01-05T05:26:40.343Z,10.40
2023-01-05T05:29:08.403Z,10.40
2023-01-05T05:31:37.058Z,10.40
2023-01-05T05:34:05.363Z,10.40
2023-01-05T05:36:34.455Z,10.40
2023-01-05T05:39:02.574Z,10.50
2023-01-05T05:41:30.831Z,10.40
2023-01-05T05:44:02.636Z,10.50
2023-01-05T05:46:31.267Z,10.30
2023-01-05T05:49:00.244Z,10.40
2023-01-05T05:51:29.035Z,10.50
2023-01-05T05:53:57.067Z,10.40
2023-01-05T05:56:25.139Z,10.40
2023-01-05T05:58:59.066Z,10.30
2023-01-05T06:01:30.907Z,10.40
2023-01-05T06:03:59.248Z,10.30
2023-01-05T06:06:27.393Z,10.20
2023-01-05T06:08:55.524Z,10.20
2023-01-05T06:11:23.659Z,10.20
2023-01-05T06:13:52.068Z,10.20
2023-01-05T06:16:20.234Z,10.20
2023-01-05T06:18:49.720Z,10.30
2023-01-05T06:21:17.872Z,10.30
2023-01-05T06:23:46.021Z,10.30
2023-01-05T06:26:14.104Z,10.20
2023-01-05T06:28:42.178Z,10.50
2023-01-05T06:31:10.882Z,10.40
2023-01-05T06:33:39.222Z,10.40
2023-01-05T06:36:09.473Z,10.30
2023-01-05T06:38:37.616Z,10.30
2023-01-05T06:41:05.921Z,10.40
2023-01-05T06:43:34.033Z,10.40
2023-01-05T06:46:02.209Z,10.40
2023-01-05T06:48:30.411Z,10.40
2023-01-05T06:50:58.958Z,10.30
2023-01-05T06:53:28.421Z,10.30
2023-01-05T06:55:56.469Z,10.30
2023-01-05T06:58:24.515Z,10.30
2023-01-05T07:00:54.937Z,10.30
2023-01-05T07:03:23.729Z,10.20
2023-01-05T07:05:52.805Z,10.00
2023-01-05T07:08:20.901Z,10.10
2023-01-05T07:10:50.283Z,10.20
2023-01-05T07:13:18.756Z,10.20
2023-01-05T07:15:47.092Z,10.30
2023-01-05T07:18:15.245Z,10.20
2023-01-05T07:20:43.327Z,10.40
2023-01-05T07:23:11.419Z,10.10
2023-01-05T07:25:39.438Z,10.30
2023-01-05T07:28:08.916Z,10.20
2023-01-05T07:30:37.034Z,10.30
2023-01-05T07:33:05.318Z,10.30
2023-01-05T07:35:34.041Z,10.20
2023-01-05T07:38:02.154Z,10.20
2023-01-05T07:40:30.266Z,10.20
2023-01-05T07:42:58.844Z,10.10
2023-01-05T07:45:28.620Z,10.20
2023-01-05T07:47:56.860Z,10.20
2023-01-05T07:50:25.220Z,10.20
2023-01-05T07:52:53.425Z,10.20
2023-01-05T07:55:21.598Z,10.20
2023-01-05T07:57:49.741Z,10.20
2023-01-05T08:00:18.062Z,10.10
2023-01-05T08:02:47.642Z,9.70
2023-01-05T08:05:15.978Z,9.80
2023-01-05T08:07:44.258Z,9.90
2023-01-05T08:10:30.526Z,10.10
2023-01-05T08:13:21.274Z,10.20
2023-01-05T08:15:51.453Z,10.00
2023-01-05T08:18:21.924Z,10.10
2023-01-05T08:20:54.436Z,10.20
2023-01-05T08:23:26.028Z,10.10
2023-01-05T08:25:55.086Z,10.30
2023-01-05T08:28:23.329Z,10.20
2023-01-05T08:30:51.485Z,10.20
2023-01-05T08:33:20.830Z,10.30
2023-01-05T08:35:49.022Z,10.30
2023-01-05T08:38:17.228Z,10.50
2023-01-05T08:40:45.273Z,10.40
2023-01-05T08:43:13.375Z,10.30
2023-01-05T08:45:41.477Z,10.20
2023-01-05T08:48:10.502Z,10.20
2023-01-05T08:50:40.022Z,10.20
2023-01-05T08:53:08.041Z,10.20
2023-01-05T08:55:36.190Z,10.20
2023-01-05T08:58:06.501Z,10.10
2023-01-05T09:00:35.293Z,9.90
2023-01-05T09:03:03.629Z,9.60
2023-01-05T09:05:31.769Z,9.30
2023-01-05T09:08:01.168Z,9.10
2023-01-05T09:10:29.257Z,9.00
2023-01-05T09:12:57.335Z,9.00
2023-01-05T09:15:25.420Z,8.90
2023-01-05T09:17:53.551Z,8.80
2023-01-05T09:20:21.772Z,8.80
2023-01-05T09:22:49.898Z,8.80
2023-01-05T09:25:19.504Z,8.70
2023-01-05T09:27:47.521Z,8.70
2023-01-05T09:30:17.400Z,8.70
2023-01-05T09:32:45.691Z,8.70
2023-01-05T09:35:13.908Z,8.70
2023-01-05T09:37:42.056Z,8.60
2023-01-05T09:40:13.305Z,8.60
2023-01-05T09:42:47.710Z,8.60
2023-01-05T09:45:24.593Z,8.70
2023-01-05T09:47:54.501Z,8.70
2023-01-05T09:50:25.170Z,8.80
2023-01-05T09:52:57.290Z,9.10
2023-01-05T09:55:29.512Z,9.20
2023-01-05T09:58:02.698Z,9.50
2023-01-05T10:00:31.362Z,9.70
2023-01-05T10:03:02.856Z,9.80
2023-01-05T10:05:33.572Z,9.80
2023-01-05T10:08:04.901Z,9.70
2023-01-05T10:10:45.536Z,9.70
2023-01-05T10:13:23.856Z,9.10
2023-01-05T10:15:55.113Z,8.90
2023-01-05T10:18:25.866Z,8.70
2023-01-05T10:21:02.939Z,8.60
2023-01-05T10:23:50.672Z,8.50
2023-01-05T10:26:25.910Z,8.30
2023-01-05T10:29:00.833Z,8.20
2023-01-05T10:31:44.932Z,8.30
2023-01-05T10:34:22.212Z,8.20
2023-01-05T10:37:09.021Z,8.10
2023-01-05T10:39:56.876Z,8.00
2023-01-05T10:42:42.137Z,8.00
2023-01-05T10:45:13.514Z,8.00
2023-01-05T10:47:42.986Z,8.00
2023-01-05T10:50:38.318Z,8.00
2023-01-05T10:53:12.791Z,8.10
2023-01-05T10:55:51.621Z,8.00
2023-01-05T10:58:24.671Z,8.10
2023-01-05T11:01:00.455Z,8.20
2023-01-05T11:04:14.174Z,8.40
2023-01-05T11:06:25.043Z,8.40
2023-01-05T11:08:53.359Z,8.30
2023-01-05T11:11:23.896Z,8.30
2023-01-05T11:13:55.963Z,8.60
2023-01-05T11:16:28.407Z,8.70
2023-01-05T11:18:58.829Z,8.80
2023-01-05T11:21:28.925Z,9.10
2023-01-05T11:23:59.086Z,9.20
2023-01-05T11:26:31.800Z,9.50
2023-01-05T11:29:02.603Z,9.50
2023-01-05T11:31:37.409Z,9.30
2023-01-05T11:34:10.026Z,9.00
2023-01-05T11:36:39.059Z,9.00
2023-01-05T11:39:07.764Z,9.10
2023-01-05T11:41:37.471Z,9.30
2023-01-05T11:44:06.819Z,9.20
2023-01-05T11:46:44.055Z,9.30
2023-01-05T11:49:12.283Z,9.50
2023-01-05T11:51:41.904Z,9.50
2023-01-05T11:54:33.007Z,9.70
2023-01-05T11:57:18.381Z,9.90
2023-01-05T11:59:47.763Z,10.20
2023-01-05T12:02:53.052Z,10.20
2023-01-05T12:05:27.921Z,10.10
2023-01-05T12:08:02.293Z,10.10
2023-01-05T12:10:55.770Z,10.10
2023-01-05T12:13:41.118Z,10.10
2023-01-05T12:16:22.800Z,10.00
2023-01-05T12:19:16.233Z,10.00
2023-01-05T12:21:55.290Z,10.00
2023-01-05T12:24:38.461Z,10.10
2023-01-05T12:27:19.863Z,10.10
2023-01-05T12:32:26.402Z,10.10
2023-01-05T12:36:35.228Z,9.90
2023-01-05T12:39:31.584Z,10.00
2023-01-05T12:42:15.244Z,10.00
2023-01-05T12:45:02.722Z,10.00
2023-01-05T12:47:51.268Z,10.00
2023-01-05T12:50:28.223Z,10.00
2023-01-05T12:53:07.745Z,10.10
2023-01-05T12:55:40.960Z,10.10
2023-01-05T12:58:14.943Z,10.10
2023-01-05T13:00:46.285Z,10.20
2023-01-05T13:03:20.803Z,10.20
2023-01-05T13:05:57.851Z,10.20
2023-01-05T13:08:34.823Z,10.20
2023-01-05T13:11:10.676Z,10.20
2023-01-05T13:13:41.787Z,10.20
2023-01-05T13:16:16.515Z,10.20
2023-01-05T13:18:51.735Z,10.40
2023-01-05T13:21:22.223Z,10.40
2023-01-05T13:23:54.978Z,10.40
2023-01-05T13:26:23.788Z,10.30
2023-01-05T13:28:55.509Z,10.20
2023-01-05T13:32:05.217Z,10.10
2023-01-05T13:35:00.504Z,10.00
2023-01-05T13:37:55.480Z,9.80
2023-01-05T13:40:46.076Z,10.20
2023-01-05T13:43:34.358Z,10.10
2023-01-05T13:46:35.063Z,9.80
2023-01-05T13:49:27.183Z,9.00
2023-01-05T13:51:58.811Z,8.80
2023-01-05T13:55:00.419Z,8.60
2023-01-05T13:57:36.284Z,8.50
2023-01-05T14:00:11.233Z,8.30
2023-01-05T14:02:43.041Z,8.20
2023-01-05T14:05:23.638Z,8.20
2023-01-05T14:07:52.253Z,8.10
2023-01-05T14:10:25.606Z,8.10
2023-01-05T14:12:55.485Z,8.10
2023-01-05T14:15:44.947Z,8.10
2023-01-05T14:18:13.220Z,8.00
2023-01-05T14:20:48.744Z,8.00
2023-01-05T14:23:57.465Z,7.90
2023-01-05T14:27:00.683Z,7.80
2023-01-05T14:30:08.424Z,7.80
2023-01-05T14:32:41.002Z,7.80
2023-01-05T14:35:22.868Z,7.90
2023-01-05T14:37:59.588Z,7.80
2023-01-05T14:40:38.513Z,7.70
2023-01-05T14:43:21.472Z,7.80
2023-01-05T14:46:07.141Z,7.80
2023-01-05T14:48:40.105Z,7.80
2023-01-05T14:51:23.705Z,7.80
2023-01-05T14:53:56.809Z,7.80
2023-01-05T14:56:27.221Z,7.80
2023-01-05T14:59:19.827Z,7.80
2023-01-05T15:01:52.382Z,7.70
2023-01-05T15:04:26.756Z,7.70
2023-01-05T15:07:08.578Z,7.60
2023-01-05T15:09:58.461Z,7.60
2023-01-05T15:12:42.278Z,7.60
2023-01-05T15:15:27.552Z,7.60
2023-01-05T15:18:25.754Z,7.60
2023-01-05T15:21:46.385Z,7.60
2023-01-05T15:24:54.182Z,7.80
2023-01-05T15:27:37.454Z,7.80
2023-01-05T15:30:22.793Z,7.90
2023-01-05T15:32:56.640Z,7.80
2023-01-05T15:35:33.009Z,7.80
2023-01-05T15:38:14.899Z,7.80
2023-01-05T15:40:43.083Z,7.70
2023-01-05T15:43:16.660Z,7.70
2023-01-05T15:45:51.426Z,7.70
2023-01-05T15:48:26.266Z,7.60
2023-01-05T15:50:56.767Z,7.60
2023-01-05T15:53:29.441Z,7.60
2023-01-05T15:55:58.544Z,7.60
2023-01-05T15:58:29.138Z,7.60
2023-01-05T16:01:09.038Z,7.60
2023-01-05T16:03:39.116Z,7.70
2023-01-05T16:06:09.888Z,7.60
2023-01-05T16:08:42.899Z,7.60
2023-01-05T16:11:14.098Z,7.60
2023-01-05T16:13:46.457Z,7.60
2023-01-05T16:16:43.243Z,7.60
2023-01-05T16:19:12.538Z,7.60
2023-01-05T16:21:44.874Z,7.70
2023-01-05T16:24:22.346Z,7.60
2023-01-05T16:26:50.502Z,7.60
2023-01-05T16:29:31.729Z,7.60
2023-01-05T16:32:00.574Z,7.70
2023-01-05T16:34:31.377Z,7.70
2023-01-05T16:37:01.546Z,7.70
2023-01-05T16:39:37.860Z,7.80
2023-01-05T16:42:31.059Z,7.80
2023-01-05T16:45:00.414Z,7.70
2023-01-05T16:47:37.803Z,7.80
2023-01-05T16:50:43.357Z,7.80
2023-01-05T16:53:13.918Z,7.80
2023-01-05T16:55:43.446Z,7.90
2023-01-05T16:58:39.035Z,7.90
2023-01-05T17:01:20.322Z,7.80
2023-01-05T17:03:49.074Z,7.80
2023-01-05T17:06:27.117Z,7.90
2023-01-05T17:08:56.854Z,7.90
2023-01-05T17:11:28.298Z,7.80
2023-01-05T17:13:56.818Z,7.80
2023-01-05T17:16:25.198Z,7.80
2023-01-05T17:18:53.356Z,7.90
2023-01-05T17:21:24.548Z,7.80
2023-01-05T17:23:55.091Z,7.80
2023-01-05T17:26:28.574Z,7.90
2023-01-05T17:29:00.330Z,7.80
2023-01-05T17:31:28.879Z,7.70
2023-01-05T17:33:57.022Z,7.80
2023-01-05T17:36:28.481Z,7.80
2023-01-05T17:38:56.648Z,7.80
2023-01-05T17:41:26.109Z,7.70
2023-01-05T17:43:54.331Z,7.70
2023-01-05T17:46:27.592Z,7.70
2023-01-05T17:48:55.879Z,7.60
2023-01-05T17:51:24.039Z,7.70
2023-01-05T17:53:52.182Z,7.70
2023-01-05T17:56:20.978Z,7.70
2023-01-05T17:58:51.070Z,7.70
2023-01-05T18:01:19.681Z,7.60
2023-01-05T18:06:20.987Z,7.60
2023-01-05T18:08:49.146Z,7.60
2023-01-05T18:11:17.801Z,7.50
2023-01-05T18:13:46.293Z,7.60
2023-01-05T18:16:15.951Z,7.50
2023-01-05T18:18:44.222Z,7.50
2023-01-05T18:21:12.508Z,7.50
2023-01-05T18:23:40.648Z,7.50
2023-01-05T18:26:10.793Z,7.50
2023-01-05T18:28:39.195Z,7.60
2023-01-05T18:31:11.622Z,7.60
2023-01-05T18:33:41.108Z,7.60
2023-01-05T18:36:13.440Z,7.60
2023-01-05T18:38:42.460Z,7.60
2023-01-05T18:41:11.054Z,7.60
2023-01-05T18:43:39.164Z,7.70
2023-01-05T18:46:07.582Z,7.70
2023-01-05T18:48:35.726Z,7.70
2023-01-05T18:51:08.234Z,7.70
2023-01-05T18:53:38.742Z,7.70
2023-01-05T18:56:08.047Z,7.60
2023-01-05T18:58:36.427Z,7.70
2023-01-05T19:01:09.558Z,7.60
2023-01-05T19:03:37.915Z,7.60
2023-01-05T19:06:09.389Z,7.60
2023-01-05T19:08:38.331Z,7.70
2023-01-05T19:11:14.448Z,7.70
2023-01-05T19:13:45.160Z,7.70
2023-01-05T19:16:15.033Z,7.60
2023-01-05T19:18:43.272Z,7.60
2023-01-05T19:21:12.757Z,7.80
2023-01-05T19:23:40.827Z,7.70
2023-01-05T19:26:09.229Z,7.70
2023-01-05T19:28:38.949Z,7.70
2023-01-05T19:31:08.935Z,7.70
2023-01-05T19:33:37.680Z,7.70
2023-01-05T19:36:07.694Z,7.70
2023-01-05T19:38:37.589Z,7.60
2023-01-05T19:41:07.703Z,7.50
2023-01-05T19:43:36.966Z,7.50
2023-01-05T19:46:07.606Z,7.40
2023-01-05T19:48:37.539Z,7.30
2023-01-05T19:51:08.219Z,7.20
2023-01-05T19:53:39.253Z,7.20
2023-01-05T19:56:08.624Z,7.20
2023-01-05T19:58:37.091Z,7.00
2023-01-05T20:01:08.911Z,7.00
2023-01-05T20:03:37.268Z,7.00
2023-01-05T20:06:07.063Z,6.90
2023-01-05T20:08:35.638Z,6.90
2023-01-05T20:11:08.962Z,6.90
2023-01-05T20:13:37.567Z,7.00
2023-01-05T20:16:07.139Z,6.90
2023-01-05T20:18:35.601Z,6.80
2023-01-05T20:21:05.786Z,6.80
2023-01-05T20:23:36.805Z,6.90
2023-01-05T20:26:09.485Z,6.80
2023-01-05T20:28:37.958Z,6.70
2023-01-05T20:31:07.219Z,6.80
2023-01-05T20:33:35.320Z,7.10
2023-01-05T20:36:05.395Z,7.20
2023-01-05T20:38:33.758Z,7.20
2023-01-05T20:41:01.916Z,7.20
2023-01-05T20:43:31.421Z,7.10
2023-01-05T20:45:59.487Z,7.10
2023-01-05T20:48:27.657Z,7.30
2023-01-05T20:51:03.322Z,7.80
2023-01-05T20:53:32.401Z,7.40
2023-01-05T20:56:00.865Z,7.50
2023-01-05T20:58:29.023Z,7.30
2023-01-05T21:01:10.772Z,7.40
2023-01-05T21:03:40.335Z,7.20
2023-01-05T21:06:10.483Z,7.20
2023-01-05T21:08:39.237Z,7.00
2023-01-05T21:11:15.748Z,7.00
2023-01-05T21:13:45.103Z,7.00
2023-01-05T21:16:18.512Z,7.10
2023-01-05T21:18:47.102Z,7.10
2023-01-05T21:21:17.681Z,7.00
2023-01-05T21:23:46.333Z,7.00
2023-01-05T21:26:15.876Z,6.90
2023-01-05T21:28:44.967Z,7.00
2023-01-05T21:31:16.082Z,6.90
2023-01-05T21:33:44.615Z,6.80
2023-01-05T21:36:16.154Z,6.80
2023-01-05T21:39:00.259Z,6.80
2023-01-05T21:41:48.900Z,7.00
2023-01-05T21:44:17.498Z,6.90
2023-01-05T21:46:47.686Z,6.80
2023-01-05T21:49:17.003Z,6.80
2023-01-05T21:52:02.402Z,6.90
2023-01-05T21:54:48.597Z,7.00
2023-01-05T21:57:17.038Z,7.30
2023-01-05T21:59:45.661Z,7.30
2023-01-05T22:02:16.264Z,7.40
2023-01-05T22:04:44.827Z,7.40
2023-01-05T22:07:12.895Z,7.40
2023-01-05T22:09:40.995Z,7.40
2023-01-05T22:12:09.595Z,7.40
2023-01-05T22:14:38.280Z,7.50
2023-01-05T22:17:07.774Z,7.50
2023-01-05T22:19:37.854Z,7.60
2023-01-05T22:22:06.060Z,7.60
2023-01-05T22:24:34.815Z,7.70
2023-01-05T22:27:03.040Z,7.70
2023-01-05T22:29:31.191Z,7.60
2023-01-05T22:32:01.874Z,7.70
2023-01-05T22:34:31.125Z,7.80
2023-01-05T22:37:00.696Z,7.80
2023-01-05T22:39:28.735Z,7.70
2023-01-05T22:41:56.961Z,7.60
2023-01-05T22:44:25.038Z,7.70
2023-01-05T22:46:53.220Z,7.80
2023-01-05T22:49:21.260Z,7.70
2023-01-05T22:51:49.424Z,7.80
2023-01-05T22:54:18.885Z,7.80
2023-01-05T22:56:47.063Z,7.70
2023-01-05T22:59:15.192Z,7.70
2023-01-05T23:01:45.055Z,7.70
2023-01-05T23:04:13.650Z,7.60
2023-01-05T23:06:42.153Z,7.50
2023-01-05T23:09:17.008Z,7.50
2023-01-05T23:11:47.481Z,7.40
2023-01-05T23:14:18.333Z,7.40
2023-01-05T23:16:46.653Z,7.40
2023-01-05T23:19:16.765Z,7.30
2023-01-05T23:21:45.558Z,7.30
2023-01-05T23:24:13.996Z,7.20
2023-01-05T23:26:42.135Z,7.20
2023-01-05T23:29:11.631Z,7.30
2023-01-05T23:31:39.762Z,7.30
2023-01-05T23:34:07.836Z,7.30
2023-01-05T23:36:36.036Z,7.20
2023-01-05T23:39:04.338Z,7.20
2023-01-05T23:41:32.441Z,7.30
2023-01-05T23:44:00.501Z,7.30
2023-01-05T23:46:29.900Z,7.30
2023-01-05T23:48:58.010Z,7.20
2023-01-05T23:51:26.192Z,7.20
2023-01-05T23:53:54.830Z,7.10
2023-01-05T23:56:24.803Z,7.10
2023-01-05T23:58:57.654Z,7.10
